METAR Data
IDs: Format: Raw Decoded Include TAF

Data at: 1821 UTC 21 Sep 2018

KUTS 211753Z AUTO 16008KT 110V180 10SM VCTS FEW027 SCT033 BKN075 32/24 A2996 RMK AO2 LTG DSNT N AND NW RAB11E26 SLP140 P0002 60003 T03170239 10317 20261 58008
KUTS 211653Z AUTO VRB06KT 10SM FEW024 SCT032 SCT043 31/24 A2999 RMK AO2 SLP149 T03110239
KUTS 211631Z AUTO 00000KT 10SM SCT020 SCT025 BKN033 31/24 A2999 RMK AO2 T03060244
KUTS 211608Z AUTO VRB03KT 10SM BKN018 BKN023 29/24 A3000 RMK AO2 T02940244
KUTS 211553Z AUTO 10SM SCT016 29/25 A2999 RMK AO2 SLP150 T02940250
KUTS 211453Z AUTO 15004KT 10SM CLR 28/25 A2999 RMK AO2 RAE08 SLP149 P0001 60001 T02780250 50007
KUTS 211353Z AUTO VRB04KT 10SM -RA FEW070 FEW100 SCT120 27/25 A2999 RMK AO2 RAB49 SLP149 P0000 T02720250
KUTS 211326Z AUTO VRB03KT 10SM FEW007 27/24 A2999 RMK AO2 T02670244
KUTS 211253Z AUTO 00000KT 10SM CLR 26/24 A2998 RMK AO2 SLP147 T02610244
KUTS 211153Z AUTO 11003KT 10SM CLR 26/24 A2996 RMK AO2 RAE24 SLP141 P0000 60000 T02610244 10267 20256 50005
KUTS 211053Z AUTO 00000KT 10SM -RA CLR 27/24 A2997 RMK AO2 RAB23 SLP141 P0000 T02670244
KUTS 210953Z AUTO 00000KT 10SM CLR 27/24 A2995 RMK AO2 RAE0855B25E43 SLP136 P0000 T02670239
KUTS 210853Z AUTO 15003KT 10SM -RA CLR 27/24 A2995 RMK AO2 RAB46 SLP135 P0000 60000 T02670239 56008
KUTS 210753Z AUTO VRB03KT 10SM CLR 27/24 A2995 RMK AO2 SLP136 T02670239
KUTS 210653Z AUTO 00000KT 10SM CLR 27/24 A2996 RMK AO2 RAB02E15 SLP139 P0000 T02670239
KUTS 210553Z AUTO 18004KT 10SM FEW110 27/24 A2997 RMK AO2 SLP143 T02670239 10289 20267 403280233 58000
KUTS 210453Z AUTO 16004KT 10SM CLR 27/24 A2998 RMK AO2 SLP145 T02720239
KUTS 210353Z AUTO VRB03KT 10SM FEW120 28/23 A2998 RMK AO2 SLP145 T02780233
KUTS 210253Z AUTO VRB03KT 10SM CLR 27/24 A2997 RMK AO2 SLP144 T02720239 53017
KUTS 210153Z AUTO 18003KT 10SM CLR 27/24 A2995 RMK AO2 SLP138 T02670239
KUTS 210053Z AUTO 16003KT 10SM CLR 28/24 A2993 RMK AO2 SLP128 T02830239
KUTS 202353Z AUTO VRB06KT 10SM SCT100 29/23 A2992 RMK AO2 SLP127 60000 T02940233 10328 20283 57002
KUTS 202253Z AUTO 18007KT 10SM CLR 30/23 A2992 RMK AO2 SLP127 T03000233
KUTS 202153Z AUTO 15004KT 10SM CLR 30/23 A2993 RMK AO2 LTG DSNT SW SLP129 T03000233
KUTS 202053Z AUTO 17005KT 10SM CLR 30/24 A2993 RMK AO2 LTG DSNT S-NW RAE20 TSE05 SLP128 P0000 60000 T03000239 58009
KUTS 202020Z AUTO VRB03KT 10SM FEW041 FEW065 SCT095 28/24 A2994 RMK AO2 LTG DSNT S-NW RAE20 TSE05 P0000 T02830239
KUTS 202011Z AUTO 19005KT 10SM VCTS -RA FEW041 SCT070 BKN095 29/24 A2994 RMK AO2 LTG DSNT W AND NW TSE05 P0000 T02890244
KUTS 201953Z AUTO VRB03KT 10SM -TSRA FEW035 SCT046 BKN110 28/24 A2995 RMK AO2 LTG DSNT SW-NW RAB31 TSB43 SLP135 P0000 T02830239
KUTS 201949Z AUTO VRB03KT 10SM -TSRA FEW035 SCT046 BKN120 28/24 A2995 RMK AO2 LTG DSNT SW-NW RAB31 TSB43 P0000
KUTS 201927Z AUTO VRB04KT 10SM VCTS CLR 31/22 A2995 RMK AO2 LTG DSNT S-W T03060222
KUTS 201853Z AUTO VRB03KT 10SM CLR 32/22 A2995 RMK AO2 LTG DSNT SE AND S SLP138 T03170217
KUTS 201753Z AUTO 00000KT 10SM FEW035 SCT046 32/22 A2998 RMK AO2 SLP146 T03170222 10322 20233 58008
KUTS 201653Z AUTO 17005KT 10SM FEW030 31/23 A3000 RMK AO2 SLP153 T03110228
KUTS 201604Z AUTO 16008KT 120V180 10SM SCT022 SCT028 SCT040 31/23 A3001 RMK AO2 T03110233
KUTS 201553Z AUTO VRB05KT 10SM BKN022 BKN029 30/23 A3001 RMK AO2 SLP156 T03000233
KUTS 201453Z AUTO 17003KT 10SM FEW011 28/24 A3000 RMK AO2 SLP154 T02830244 53015
KUTS 201353Z AUTO 00000KT 9SM CLR 26/23 A2999 RMK AO2 SLP149 T02610233
KUTS 201253Z AUTO 00000KT 10SM CLR 24/22 A2997 RMK AO2 SLP144 T02390222
KUTS 201153Z AUTO 00000KT 9SM CLR 24/22 A2996 RMK AO2 SLP140 T02390222 10256 20233 53005
KUTS 201053Z AUTO 00000KT 10SM CLR 24/23 A2995 RMK AO2 SLP136 T02440228
KUTS 200953Z AUTO 00000KT 10SM CLR 24/23 A2995 RMK AO2 SLP135 T02440228
KUTS 200853Z AUTO 19005KT 10SM CLR 24/23 A2994 RMK AO2 SLP134 T02440228 57009
KUTS 200753Z AUTO 20003KT 10SM CLR 25/22 A2995 RMK AO2 SLP137 T02500222
KUTS 200653Z AUTO 18003KT 10SM CLR 25/22 A2996 RMK AO2 SLP141 T02500222